CheckWX is a tool to help pilots better visualize weather data.  It is not intended as a substitute for an official pre-flight weather briefing.

19:52:26 UTC

KTWF METAR
Joslin Field - Magic Valley Regional Airport
Twin Falls, Idaho, USA
Current

59 mins ago

KTWF 271853Z 28014KT 10SM FEW025 SCT080 06/01 A3025 RMK AO2 SLP237 T00610006
Observed
Jan-27 @ 18:53 UTC
Wind
  • 280° at 14 KTS
Visibility
10 SM
Flight Rules
VFR
Cloud Levels
  • Few at 2,500' AGL
  • Scattered at 8,000' AGL
Temperature
C / 43°F
Dewpoint
C / 34°F
Humidity
71%
Altimeter
30.25" Hg
Pressure
1024.42 hPa
Previous

2 hours ago

KTWF 271753Z 25013KT 10SM BKN055 OVC075 04/00 A3025 RMK AO2 SLP240 T00390000 10039 20006 52013
Observed
Jan-27 @ 17:53 UTC
Wind
  • 250° at 13 KTS
Visibility
10 SM
Flight Rules
VFR
Cloud Levels
  • Broken at 5,500' AGL
  • Overcast at 7,500' AGL
Temperature
C / 39°F
Dewpoint
C / 32°F
Humidity
75%
Altimeter
30.25" Hg
Pressure
1024.42 hPa
Previous

3 hours ago

KTWF 271653Z 23010KT 10SM BKN043 OVC090 02/M01 A3023 RMK AO2 SLP235 T00221011
Observed
Jan-27 @ 16:53 UTC
Wind
  • 230° at 10 KTS
Visibility
10 SM
Flight Rules
VFR
Cloud Levels
  • Broken at 4,300' AGL
  • Overcast at 9,000' AGL
Temperature
C / 36°F
Dewpoint
-1°C / 30°F
Humidity
81%
Altimeter
30.23" Hg
Pressure
1023.72 hPa